createdAt,value
2022-09-25T00:02:06.469Z,26.57
2022-09-25T00:04:34.995Z,24.83
2022-09-25T00:07:03.508Z,26.00
2022-09-25T00:09:31.993Z,25.10
2022-09-25T00:12:00.992Z,24.07
2022-09-25T00:14:31.033Z,25.93
2022-09-25T00:16:59.606Z,25.50
2022-09-25T00:19:45.536Z,24.93
2022-09-25T00:22:14.010Z,26.60
2022-09-25T00:24:42.675Z,27.30
2022-09-25T00:27:11.163Z,23.77
2022-09-25T00:29:41.746Z,23.07
2022-09-25T00:32:12.304Z,25.57
2022-09-25T00:34:41.447Z,25.30
2022-09-25T00:37:09.941Z,24.83
2022-09-25T00:39:38.606Z,24.57
2022-09-25T00:42:07.187Z,25.57
2022-09-25T00:45:01.050Z,24.90
2022-09-25T00:47:44.476Z,24.43
2022-09-25T00:50:19.424Z,27.23
2022-09-25T00:52:48.698Z,28.50
2022-09-25T00:55:17.796Z,27.70
2022-09-25T00:57:50.531Z,26.93
2022-09-25T01:00:20.579Z,26.27
2022-09-25T01:02:54.247Z,24.87
2022-09-25T01:05:26.899Z,26.37
2022-09-25T01:07:57.179Z,24.43
2022-09-25T01:10:25.750Z,24.87
2022-09-25T01:12:55.432Z,24.03
2022-09-25T01:15:30.181Z,24.57
2022-09-25T01:18:07.208Z,24.37
2022-09-25T01:21:00.661Z,24.50
2022-09-25T01:23:46.018Z,22.80
2022-09-25T01:26:31.427Z,23.90
2022-09-25T01:29:12.554Z,24.20
2022-09-25T01:31:47.635Z,26.50
2022-09-25T01:34:22.192Z,26.93
2022-09-25T01:36:57.935Z,25.97
2022-09-25T01:39:32.315Z,25.40
2022-09-25T01:42:07.664Z,25.47
2022-09-25T01:44:43.756Z,28.10
2022-09-25T01:47:18.522Z,27.77
2022-09-25T01:49:51.478Z,22.60
2022-09-25T01:52:25.902Z,24.10
2022-09-25T01:54:57.223Z,23.90
2022-09-25T01:57:31.010Z,24.73
2022-09-25T02:00:08.617Z,24.70
2022-09-25T02:02:42.479Z,25.10
2022-09-25T02:05:15.869Z,24.73
2022-09-25T02:07:49.679Z,23.03
2022-09-25T02:10:22.347Z,24.10
2022-09-25T02:12:57.523Z,25.70
2022-09-25T02:15:30.542Z,25.30
2022-09-25T02:18:16.693Z,24.83
2022-09-25T02:20:50.349Z,25.90
2022-09-25T02:23:23.643Z,26.10
2022-09-25T02:26:01.743Z,28.30
2022-09-25T02:28:30.221Z,27.37
2022-09-25T02:31:02.131Z,26.07
2022-09-25T02:33:30.993Z,25.87
2022-09-25T02:36:01.830Z,27.90
2022-09-25T02:38:33.581Z,27.23
2022-09-25T02:41:11.168Z,26.60
2022-09-25T02:43:47.067Z,25.70
2022-09-25T02:46:23.160Z,25.00
2022-09-25T02:48:55.128Z,26.07
2022-09-25T02:51:30.822Z,24.83
2022-09-25T02:54:09.203Z,26.27
2022-09-25T02:56:42.393Z,26.20
2022-09-25T02:59:15.804Z,27.80
2022-09-25T03:01:47.341Z,25.17
2022-09-25T03:04:17.751Z,27.63
2022-09-25T03:06:47.065Z,26.33
2022-09-25T03:09:18.402Z,27.37
2022-09-25T03:11:46.932Z,25.17
2022-09-25T03:14:15.398Z,26.27
2022-09-25T03:16:50.041Z,25.30
2022-09-25T03:19:19.873Z,25.80
2022-09-25T03:21:48.476Z,27.27
2022-09-25T03:24:17.163Z,24.87
2022-09-25T03:26:45.902Z,25.90
2022-09-25T03:29:16.777Z,27.30
2022-09-25T03:31:46.957Z,25.67
2022-09-25T03:34:17.753Z,26.13
2022-09-25T03:36:47.636Z,23.63
2022-09-25T03:39:17.998Z,25.57
2022-09-25T03:41:47.764Z,25.00
2022-09-25T03:44:16.351Z,23.83
2022-09-25T03:46:46.332Z,25.20
2022-09-25T03:49:14.839Z,26.90
2022-09-25T03:51:43.337Z,24.27
2022-09-25T03:54:11.961Z,25.03
2022-09-25T03:56:40.578Z,24.00
2022-09-25T03:59:09.058Z,23.27
2022-09-25T04:01:37.994Z,19.83
2022-09-25T04:04:07.949Z,20.77
2022-09-25T04:06:36.360Z,23.07
2022-09-25T04:09:04.918Z,22.33
2022-09-25T04:11:33.349Z,20.03
2022-09-25T04:14:02.249Z,20.47
2022-09-25T04:16:31.350Z,22.40
2022-09-25T04:19:00.002Z,21.00
2022-09-25T04:21:29.863Z,20.83
2022-09-25T04:24:20.931Z,21.90
2022-09-25T04:26:53.811Z,22.63
2022-09-25T04:29:24.219Z,22.80
2022-09-25T04:32:06.562Z,22.97
2022-09-25T04:34:35.055Z,24.13
2022-09-25T04:37:04.880Z,23.30
2022-09-25T04:39:33.441Z,22.90
2022-09-25T04:42:01.944Z,23.20
2022-09-25T04:44:31.116Z,22.23
2022-09-25T04:46:59.683Z,21.57
2022-09-25T04:49:28.086Z,23.10
2022-09-25T04:51:56.946Z,24.97
2022-09-25T04:54:26.845Z,24.47
2022-09-25T04:56:55.289Z,23.53
2022-09-25T04:59:23.909Z,23.80
2022-09-25T05:01:52.443Z,22.10
2022-09-25T05:04:21.001Z,24.07
2022-09-25T05:06:49.425Z,22.30
2022-09-25T05:09:17.891Z,23.07
2022-09-25T05:11:49.221Z,23.80
2022-09-25T05:14:17.824Z,24.27
2022-09-25T05:16:47.896Z,22.80
2022-09-25T05:19:16.853Z,28.80
2022-09-25T05:21:45.594Z,27.87
2022-09-25T05:24:14.211Z,25.90
2022-09-25T05:26:43.231Z,25.83
2022-09-25T05:29:13.108Z,26.10
2022-09-25T05:31:42.708Z,25.10
2022-09-25T05:34:11.462Z,22.23
2022-09-25T05:36:39.997Z,21.53
2022-09-25T05:39:13.631Z,22.47
2022-09-25T05:41:42.965Z,23.40
2022-09-25T05:44:13.142Z,20.47
2022-09-25T05:46:42.285Z,23.53
2022-09-25T05:49:10.909Z,22.60
2022-09-25T05:51:39.445Z,21.43
2022-09-25T05:54:08.065Z,22.37
2022-09-25T05:56:36.501Z,22.87
2022-09-25T05:59:05.060Z,22.77
2022-09-25T06:01:34.980Z,23.20
2022-09-25T06:04:04.507Z,22.80
2022-09-25T06:06:36.439Z,21.40
2022-09-25T06:09:05.116Z,20.07
2022-09-25T06:11:33.610Z,20.83
2022-09-25T06:14:02.781Z,20.60
2022-09-25T06:16:31.378Z,21.50
2022-09-25T06:19:01.254Z,20.10
2022-09-25T06:21:29.880Z,18.90
2022-09-25T06:23:58.308Z,19.70
2022-09-25T06:26:26.752Z,18.50
2022-09-25T06:28:58.579Z,19.03
2022-09-25T06:31:29.587Z,17.87
2022-09-25T06:33:58.089Z,19.13
2022-09-25T06:36:28.291Z,20.77
2022-09-25T06:38:56.822Z,23.00
2022-09-25T06:41:25.798Z,19.30
2022-09-25T06:43:55.106Z,19.50
2022-09-25T06:46:23.928Z,21.73
2022-09-25T06:48:54.332Z,34.47
2022-09-25T06:51:23.485Z,31.00
2022-09-25T06:53:55.820Z,32.83
2022-09-25T06:56:24.591Z,29.70
2022-09-25T06:58:53.206Z,27.53
2022-09-25T07:01:21.748Z,25.43
2022-09-25T07:03:55.190Z,26.10
2022-09-25T07:06:26.566Z,23.40
2022-09-25T07:08:57.112Z,17.50
2022-09-25T07:11:28.054Z,16.77
2022-09-25T07:13:56.574Z,16.80
2022-09-25T07:16:26.322Z,17.23
2022-09-25T07:18:57.161Z,16.27
2022-09-25T07:21:27.796Z,15.37
2022-09-25T07:23:58.978Z,14.57
2022-09-25T07:26:29.594Z,16.47
2022-09-25T07:29:00.265Z,16.50
2022-09-25T07:31:30.889Z,16.13
2022-09-25T07:34:00.468Z,17.47
2022-09-25T07:36:29.059Z,16.07
2022-09-25T07:38:58.873Z,15.10
2022-09-25T07:41:27.352Z,19.60
2022-09-25T07:46:46.434Z,16.53
2022-09-25T07:49:15.128Z,17.80
2022-09-25T07:51:43.624Z,18.17
2022-09-25T07:54:13.630Z,18.07
2022-09-25T07:56:42.184Z,16.80
2022-09-25T07:59:10.616Z,17.47
2022-09-25T08:01:43.601Z,17.47
2022-09-25T08:04:14.032Z,17.60
2022-09-25T08:06:42.568Z,17.33
2022-09-25T08:09:13.745Z,18.07
2022-09-25T08:11:42.221Z,17.63
2022-09-25T08:14:14.347Z,16.27
2022-09-25T08:16:43.354Z,16.07
2022-09-25T08:19:12.567Z,18.00
2022-09-25T08:21:41.012Z,17.37
2022-09-25T08:24:10.815Z,16.03
2022-09-25T08:26:40.698Z,18.10
2022-09-25T08:29:09.391Z,17.90
2022-09-25T08:31:37.926Z,16.50
2022-09-25T08:34:35.855Z,18.37
2022-09-25T08:36:58.019Z,17.57
2022-09-25T08:39:26.426Z,17.37
2022-09-25T08:41:57.896Z,17.87
2022-09-25T08:44:29.671Z,16.90
2022-09-25T08:47:20.383Z,19.23
2022-09-25T08:49:57.520Z,19.23
2022-09-25T08:52:26.240Z,18.50
2022-09-25T08:54:54.742Z,18.87
2022-09-25T08:57:34.901Z,19.03
2022-09-25T09:00:08.631Z,18.07
2022-09-25T09:02:42.220Z,18.27
2022-09-25T09:05:20.671Z,20.33
2022-09-25T09:07:54.468Z,19.70
2022-09-25T09:10:33.879Z,19.00
2022-09-25T09:13:15.040Z,19.00
2022-09-25T09:15:50.484Z,17.00
2022-09-25T09:18:23.434Z,18.43
2022-09-25T09:20:54.693Z,17.97
2022-09-25T09:23:25.186Z,17.03
2022-09-25T09:26:02.990Z,18.23
2022-09-25T09:29:07.504Z,15.77
2022-09-25T09:31:46.840Z,15.73
2022-09-25T09:34:52.928Z,17.03
2022-09-25T09:37:26.205Z,14.43
2022-09-25T09:40:04.462Z,15.00
2022-09-25T09:42:42.030Z,15.63
2022-09-25T09:45:19.555Z,15.30
2022-09-25T09:47:53.461Z,15.50
2022-09-25T09:50:43.196Z,13.43
2022-09-25T09:53:29.001Z,13.93
2022-09-25T09:56:05.646Z,15.57
2022-09-25T09:58:45.019Z,14.47
2022-09-25T10:01:39.729Z,15.20
2022-09-25T10:04:10.565Z,11.80
2022-09-25T10:06:41.759Z,11.73
2022-09-25T10:09:14.627Z,12.77
2022-09-25T10:11:45.584Z,12.00
2022-09-25T10:14:21.251Z,12.57
2022-09-25T10:16:53.120Z,11.70
2022-09-25T10:19:24.676Z,13.50
2022-09-25T10:21:56.078Z,13.03
2022-09-25T10:24:58.634Z,13.20
2022-09-25T10:27:32.644Z,12.70
2022-09-25T10:30:17.989Z,11.90
2022-09-25T10:32:57.984Z,12.50
2022-09-25T10:35:29.727Z,13.10
2022-09-25T10:38:01.711Z,12.00
2022-09-25T10:40:34.050Z,13.27
2022-09-25T10:43:17.841Z,13.17
2022-09-25T10:45:46.606Z,13.43
2022-09-25T10:48:51.974Z,14.50
2022-09-25T10:51:21.417Z,14.07
2022-09-25T10:53:51.078Z,12.37
2022-09-25T10:56:27.127Z,12.33
2022-09-25T10:58:58.913Z,13.30
2022-09-25T11:01:36.169Z,12.53
2022-09-25T11:04:15.925Z,13.93
2022-09-25T11:06:47.456Z,13.23
2022-09-25T11:09:18.239Z,15.33
2022-09-25T11:11:49.386Z,13.73
2022-09-25T11:14:26.198Z,12.40
2022-09-25T11:16:58.002Z,11.87
2022-09-25T11:19:30.333Z,13.60
2022-09-25T11:22:14.132Z,10.70
2022-09-25T11:25:01.680Z,12.43
2022-09-25T11:27:36.523Z,12.90
2022-09-25T11:30:07.675Z,11.30
2022-09-25T11:32:43.278Z,10.70
2022-09-25T11:35:29.586Z,10.17
2022-09-25T11:38:09.819Z,10.43
2022-09-25T11:41:03.111Z,7.80
2022-09-25T11:43:41.948Z,9.07
2022-09-25T11:46:24.174Z,7.70
2022-09-25T11:49:09.967Z,10.17
2022-09-25T11:52:05.930Z,11.23
2022-09-25T11:54:46.454Z,8.97
2022-09-25T11:57:20.876Z,9.27
2022-09-25T12:00:03.717Z,7.10
2022-09-25T12:02:46.238Z,8.63
2022-09-25T12:05:29.507Z,7.43
2022-09-25T12:08:24.329Z,9.43
2022-09-25T12:11:02.734Z,10.40
2022-09-25T12:13:44.747Z,8.73
2022-09-25T12:16:22.690Z,7.17
2022-09-25T12:19:01.262Z,7.50
2022-09-25T12:21:36.025Z,7.70
2022-09-25T12:24:15.075Z,7.20
2022-09-25T12:26:52.825Z,5.97
2022-09-25T12:29:39.767Z,6.17
2022-09-25T12:32:14.906Z,6.30
2022-09-25T12:34:58.461Z,5.77
2022-09-25T12:37:35.673Z,6.20
2022-09-25T12:40:15.134Z,6.70
2022-09-25T12:42:47.751Z,5.80
2022-09-25T12:45:21.211Z,5.37
2022-09-25T12:48:08.398Z,5.30
2022-09-25T12:50:44.118Z,5.40
2022-09-25T12:53:23.187Z,5.60
2022-09-25T12:55:58.479Z,5.30
2022-09-25T12:58:38.803Z,5.40
2022-09-25T13:01:14.078Z,4.70
2022-09-25T13:03:48.562Z,6.77
2022-09-25T13:06:23.864Z,5.77
2022-09-25T13:08:58.539Z,5.53
2022-09-25T13:11:40.834Z,6.63
2022-09-25T13:14:17.829Z,5.70
2022-09-25T13:16:48.775Z,5.73
2022-09-25T13:19:26.618Z,8.47
2022-09-25T13:22:03.823Z,6.70
2022-09-25T13:24:39.110Z,8.40
2022-09-25T13:27:18.875Z,8.53
2022-09-25T13:29:55.748Z,8.10
2022-09-25T13:32:28.621Z,8.13
2022-09-25T13:34:59.969Z,6.47
2022-09-25T13:37:31.612Z,6.97
2022-09-25T13:40:19.413Z,6.83
2022-09-25T13:42:49.424Z,7.10
2022-09-25T13:45:36.319Z,6.73
2022-09-25T13:48:15.705Z,6.03
2022-09-25T13:50:45.944Z,6.50
2022-09-25T13:53:26.404Z,6.83
2022-09-25T13:56:25.750Z,6.80
2022-09-25T13:59:24.504Z,7.80
2022-09-25T14:01:56.473Z,6.67
2022-09-25T14:04:46.413Z,6.80
2022-09-25T14:07:22.310Z,7.50
2022-09-25T14:09:54.748Z,6.27
2022-09-25T14:12:30.125Z,7.20
2022-09-25T14:15:05.868Z,6.70
2022-09-25T14:17:35.973Z,6.57
2022-09-25T14:20:08.164Z,6.37
2022-09-25T14:22:44.427Z,7.57
2022-09-25T14:25:33.966Z,6.67
2022-09-25T14:28:03.792Z,6.43
2022-09-25T14:30:34.979Z,6.50
2022-09-25T14:33:42.463Z,5.53
2022-09-25T14:36:22.321Z,5.70
2022-09-25T14:39:07.285Z,5.20
2022-09-25T14:41:52.951Z,5.20
2022-09-25T14:44:45.189Z,5.60
2022-09-25T14:47:17.143Z,5.07
2022-09-25T14:49:49.637Z,4.90
2022-09-25T14:52:24.130Z,5.17
2022-09-25T14:54:55.407Z,5.27
2022-09-25T14:57:29.007Z,4.90
2022-09-25T15:00:01.077Z,4.70
2022-09-25T15:02:33.986Z,5.07
2022-09-25T15:05:19.181Z,4.87
2022-09-25T15:07:48.411Z,5.47
2022-09-25T15:10:29.869Z,4.97
2022-09-25T15:13:09.390Z,5.67
2022-09-25T15:15:40.068Z,5.33
2022-09-25T15:18:13.991Z,5.00
2022-09-25T15:20:49.101Z,5.13
2022-09-25T15:23:20.042Z,5.07
2022-09-25T15:25:51.523Z,6.13
2022-09-25T15:28:21.613Z,5.13
2022-09-25T15:30:57.142Z,5.43
2022-09-25T15:33:29.268Z,5.20
2022-09-25T15:35:58.970Z,4.97
2022-09-25T15:38:32.046Z,5.63
2022-09-25T15:41:01.327Z,4.53
2022-09-25T15:43:31.112Z,5.60
2022-09-25T15:46:20.955Z,5.80
2022-09-25T15:48:55.977Z,5.60
2022-09-25T15:51:28.137Z,5.03
2022-09-25T15:53:58.977Z,5.90
2022-09-25T15:56:29.658Z,6.50
2022-09-25T15:59:01.809Z,5.40
2022-09-25T16:01:51.321Z,5.37
2022-09-25T16:04:53.014Z,5.70
2022-09-25T16:07:24.227Z,5.63
2022-09-25T16:09:53.813Z,6.33
2022-09-25T16:12:28.842Z,5.20
2022-09-25T16:14:58.620Z,5.47
2022-09-25T16:17:33.568Z,5.60
2022-09-25T16:20:28.812Z,6.13
2022-09-25T16:22:59.450Z,6.37
2022-09-25T16:25:33.021Z,6.07
2022-09-25T16:28:05.761Z,5.60
2022-09-25T16:30:35.584Z,5.90
2022-09-25T16:33:09.257Z,6.20
2022-09-25T16:36:08.174Z,5.60
2022-09-25T16:38:31.185Z,6.03
2022-09-25T16:41:07.310Z,7.10
2022-09-25T16:43:39.294Z,7.20
2022-09-25T16:46:16.164Z,5.93
2022-09-25T16:48:46.648Z,6.07
2022-09-25T16:51:22.557Z,6.23
2022-09-25T16:53:51.538Z,6.17
2022-09-25T16:56:22.750Z,6.70
2022-09-25T16:58:51.435Z,6.37
2022-09-25T17:01:20.475Z,7.30
2022-09-25T17:03:52.805Z,6.70
2022-09-25T17:06:24.417Z,7.10
2022-09-25T17:08:53.158Z,8.33
2022-09-25T17:11:22.861Z,8.30
2022-09-25T17:13:52.535Z,7.90
2022-09-25T17:16:21.136Z,8.10
2022-09-25T17:18:49.678Z,8.33
2022-09-25T17:21:20.080Z,9.60
2022-09-25T17:23:49.901Z,10.57
2022-09-25T17:26:21.435Z,12.50
2022-09-25T17:28:50.633Z,11.90
2022-09-25T17:31:22.486Z,12.10
2022-09-25T17:33:51.346Z,12.70
2022-09-25T17:36:20.467Z,10.90
2022-09-25T17:38:50.269Z,9.97
2022-09-25T17:41:21.929Z,13.03
2022-09-25T17:43:50.587Z,13.07
2022-09-25T17:46:20.387Z,9.93
2022-09-25T17:48:53.960Z,10.73
2022-09-25T17:51:24.811Z,11.80
2022-09-25T17:53:56.026Z,11.73
2022-09-25T17:56:25.647Z,12.50
2022-09-25T17:58:57.330Z,11.30
2022-09-25T18:01:27.979Z,12.00
2022-09-25T18:03:58.874Z,12.17
2022-09-25T18:06:28.854Z,15.43
2022-09-25T18:08:58.924Z,13.47
2022-09-25T18:11:28.129Z,12.40
2022-09-25T18:14:01.112Z,12.17
2022-09-25T18:16:31.613Z,12.40
2022-09-25T18:19:17.788Z,11.50
2022-09-25T18:22:03.857Z,11.63
2022-09-25T18:24:33.680Z,11.80
2022-09-25T18:27:02.168Z,15.63
2022-09-25T18:29:30.686Z,13.33
2022-09-25T18:31:59.602Z,12.83
2022-09-25T18:34:29.542Z,11.20
2022-09-25T18:36:57.977Z,12.60
2022-09-25T18:39:26.434Z,12.47
2022-09-25T18:41:56.284Z,12.47
2022-09-25T18:44:24.827Z,11.93
2022-09-25T18:46:54.673Z,12.57
2022-09-25T18:49:24.022Z,13.33
2022-09-25T18:51:52.562Z,12.57
2022-09-25T18:54:21.472Z,13.17
2022-09-25T18:56:50.056Z,13.93
2022-09-25T18:59:19.968Z,13.10
2022-09-25T19:01:48.518Z,13.83
2022-09-25T19:04:17.789Z,15.20
2022-09-25T19:06:46.270Z,14.97
2022-09-25T19:09:16.899Z,15.90
2022-09-25T19:11:45.680Z,15.20
2022-09-25T19:14:14.896Z,15.87
2022-09-25T19:16:46.202Z,14.63
2022-09-25T19:19:14.953Z,15.23
2022-09-25T19:21:44.779Z,16.33
2022-09-25T19:24:13.737Z,14.83
2022-09-25T19:26:44.277Z,15.60
2022-09-25T19:29:12.853Z,15.47
2022-09-25T19:31:41.472Z,13.80
2022-09-25T19:34:11.539Z,14.80
2022-09-25T19:36:40.106Z,15.33
2022-09-25T19:39:08.669Z,14.90
2022-09-25T19:41:39.081Z,15.83
2022-09-25T19:44:13.147Z,14.87
2022-09-25T19:46:42.607Z,15.03
2022-09-25T19:49:12.898Z,16.00
2022-09-25T19:51:42.169Z,14.50
2022-09-25T19:54:14.057Z,14.93
2022-09-25T19:56:43.161Z,14.60
2022-09-25T19:59:14.699Z,14.90
2022-09-25T20:01:44.190Z,15.20
2022-09-25T20:04:18.613Z,15.07
2022-09-25T20:06:48.605Z,15.47
2022-09-25T20:09:17.315Z,15.27
2022-09-25T20:11:46.249Z,13.40
2022-09-25T20:14:14.794Z,15.30
2022-09-25T20:16:43.322Z,14.10
2022-09-25T20:19:13.899Z,16.30
2022-09-25T20:21:42.495Z,15.90
2022-09-25T20:24:11.212Z,15.77
2022-09-25T20:26:39.809Z,15.33
2022-09-25T20:29:10.384Z,14.20
2022-09-25T20:31:40.107Z,14.90
2022-09-25T20:34:11.876Z,14.93
2022-09-25T20:36:41.946Z,14.43
2022-09-25T20:39:10.525Z,15.53
2022-09-25T20:41:39.657Z,17.53
2022-09-25T20:44:08.965Z,16.10
2022-09-25T20:46:37.666Z,14.50
2022-09-25T20:49:06.242Z,14.70
2022-09-25T20:51:36.013Z,16.80
2022-09-25T20:54:07.822Z,14.67
2022-09-25T20:56:37.919Z,16.20
2022-09-25T20:59:07.092Z,13.17
2022-09-25T21:01:38.233Z,14.03
2022-09-25T21:04:08.828Z,14.20
2022-09-25T21:06:38.748Z,15.17
2022-09-25T21:09:11.427Z,13.90
2022-09-25T21:11:43.209Z,15.47
2022-09-25T21:14:16.580Z,15.17
2022-09-25T21:16:45.238Z,15.03
2022-09-25T21:19:15.388Z,14.50
2022-09-25T21:21:44.379Z,15.60
2022-09-25T21:24:18.015Z,14.47
2022-09-25T21:26:47.368Z,15.03
2022-09-25T21:29:17.242Z,14.63
2022-09-25T21:31:49.771Z,17.27
2022-09-25T21:34:19.810Z,15.97
2022-09-25T21:36:49.094Z,15.60
2022-09-25T21:39:20.994Z,16.90
2022-09-25T21:41:50.297Z,15.97
2022-09-25T21:44:23.466Z,18.83
2022-09-25T21:46:52.020Z,17.87
2022-09-25T21:49:22.253Z,18.53
2022-09-25T21:51:51.099Z,17.63
2022-09-25T21:54:21.922Z,19.00
2022-09-25T21:56:50.403Z,18.30
2022-09-25T21:59:19.294Z,16.80
2022-09-25T22:01:47.938Z,18.77
2022-09-25T22:04:16.896Z,18.20
2022-09-25T22:06:47.438Z,15.70
2022-09-25T22:09:17.742Z,18.50
2022-09-25T22:11:47.857Z,17.83
2022-09-25T22:14:17.269Z,18.17
2022-09-25T22:16:47.637Z,18.20
2022-09-25T22:19:18.884Z,16.80
2022-09-25T22:21:49.451Z,17.17
2022-09-25T22:24:18.260Z,17.57
2022-09-25T22:26:51.432Z,16.77
2022-09-25T22:29:21.206Z,14.70
2022-09-25T22:31:50.047Z,16.87
2022-09-25T22:34:21.451Z,17.20
2022-09-25T22:36:54.874Z,17.83
2022-09-25T22:39:26.574Z,18.43
2022-09-25T22:41:57.525Z,18.80
2022-09-25T22:44:26.246Z,18.80
2022-09-25T22:46:54.931Z,18.80
2022-09-25T22:49:23.412Z,18.57
2022-09-25T22:51:51.862Z,18.37
2022-09-25T22:54:20.541Z,17.60
2022-09-25T22:56:49.035Z,18.43
2022-09-25T22:59:19.046Z,18.57
2022-09-25T23:01:50.264Z,18.90
2022-09-25T23:04:20.940Z,17.67
2022-09-25T23:06:49.720Z,19.63
2022-09-25T23:09:20.231Z,18.10
2022-09-25T23:11:48.873Z,17.60
2022-09-25T23:14:21.626Z,19.80
2022-09-25T23:16:51.769Z,18.07
2022-09-25T23:19:21.449Z,17.00
2022-09-25T23:21:51.634Z,17.03
2022-09-25T23:24:22.041Z,18.57
2022-09-25T23:26:50.815Z,19.67
2022-09-25T23:29:22.663Z,15.37
2022-09-25T23:31:51.687Z,17.20
2022-09-25T23:34:20.292Z,16.90
2022-09-25T23:36:48.777Z,18.97
2022-09-25T23:39:18.918Z,18.27
2022-09-25T23:41:47.837Z,18.30
2022-09-25T23:44:16.525Z,18.23
2022-09-25T23:46:46.407Z,17.37
2022-09-25T23:49:15.249Z,19.37
2022-09-25T23:51:43.858Z,17.73
2022-09-25T23:54:12.870Z,17.00
2022-09-25T23:56:42.027Z,18.60
2022-09-25T23:59:12.381Z,19.67
